Data for 06/14/2013

Time Sea-Level Adjusted Pressure Absolute Pressure Temperature Relative Humidity Dew Point   
(mb) (inHg) (mb) (inHg) (C) (F) (%) (C) (F)
00:05 1019 30.09 849 25.07 6.9 44.4 91 5.6 42
00:10 1019 30.09 848 25.04 6.9 44.4 91 5.5 42
00:15 1019 30.09 848 25.04 6.9 44.3 91 5.4 41.8
00:20 1019 30.09 848 25.04 6.7 44.1 91 5.4 41.7
00:25 1019 30.09 848 25.04 6.7 44 91 5.3 41.6
00:30 1019 30.09 848 25.04 6.6 43.8 90 5.1 41.2
00:35 1019 30.09 848 25.04 6.5 43.7 90 5 40.9
00:40 1019 30.09 848 25.04 6.5 43.6 91 5 41.1
00:45 1019 30.09 848 25.04 6.4 43.6 88 4.7 40.4
00:50 1019 30.09 848 25.04 6.5 43.7 89 4.7 40.5
00:55 1018 30.06 848 25.04 6.5 43.7 88 4.6 40.3
01:00 1018 30.06 848 25.04 6.5 43.7 87 4.6 40.2
01:05 1018 30.06 847 25.01 6.4 43.5 86 4.3 39.7
01:10 1018 30.06 847 25.01 6.3 43.3 88 4.4 39.9
01:15 1018 30.06 847 25.01 6.2 43.1 85 3.8 38.9
01:20 1018 30.06 847 25.01 6.2 43.1 87 4.2 39.5
01:25 1018 30.06 847 25.01 6 42.8 88 4.2 39.5
01:30 1018 30.06 847 25.01 5.9 42.6 88 4.1 39.4
01:35 1018 30.06 847 25.01 5.8 42.5 89 4.2 39.5
01:40 1018 30.06 847 25.01 5.8 42.4 89 4.1 39.3
01:45 1018 30.06 847 25.01 5.8 42.4 84 3.3 38
01:50 1018 30.06 847 25.01 5.9 42.6 84 3.5 38.3
01:55 1018 30.06 847 25.01 5.8 42.4 87 3.8 38.8
02:00 1018 30.06 847 25.01 5.6 42 86 3.5 38.2
02:05 1018 30.06 847 25.01 5.6 42.1 86 3.5 38.3
02:10 1018 30.06 847 25.01 5.6 42.1 85 3.3 38
02:15 1018 30.06 847 25.01 5.6 42.1 88 3.7 38.7
02:20 1018 30.06 847 25.01 5.5 41.8 88 3.6 38.5
02:25 1018 30.06 847 25.01 5.4 41.7 89 3.7 38.7
02:30 1018 30.06 847 25.01 5.4 41.7 88 3.6 38.5
02:35 1018 30.06 847 25.01 5.4 41.7 88 3.5 38.3
02:40 1017 30.03 847 25.01 5.5 41.9 89 3.9 38.9
02:45 1017 30.03 846 24.98 5.5 41.8 90 4 39.2
02:50 1017 30.03 846 24.98 5.4 41.7 90 3.9 39
02:55 1017 30.03 847 25.01 5.4 41.7 89 3.7 38.6
03:00 1017 30.03 847 25.01 5.4 41.8 89 3.8 38.8
03:05 1018 30.06 847 25.01 5.4 41.8 89 3.8 38.8
03:10 1018 30.06 847 25.01 5.5 41.8 89 3.9 38.9
03:15 1018 30.06 847 25.01 5.6 42.1 90 4.1 39.4
03:20 1018 30.06 847 25.01 5.7 42.3 90 4.2 39.5
03:25 1018 30.06 847 25.01 5.8 42.5 89 4.2 39.5
03:30 1018 30.06 847 25.01 5.8 42.4 89 4.1 39.5
03:35 1018 30.06 848 25.04 5.8 42.4 90 4.3 39.7
03:40 1019 30.09 848 25.04 5.8 42.4 91 4.4 40
03:45 1018 30.06 847 25.01 5.8 42.4 90 4.3 39.7
03:50 1018 30.06 847 25.01 5.7 42.2 89 4 39.3
03:55 1018 30.06 848 25.04 5.6 42.1 89 3.9 39.1
04:00 1018 30.06 848 25.04 5.6 42 91 4.2 39.6
04:05 1019 30.09 848 25.04 5.6 42.1 92 4.4 40
04:10 1019 30.09 848 25.04 5.7 42.2 89 4.1 39.3
04:15 1019 30.09 848 25.04 5.7 42.2 88 3.8 38.9
04:20 1019 30.09 848 25.04 5.5 41.9 88 3.7 38.6
04:25 1019 30.09 848 25.04 5.4 41.7 87 3.4 38.2
04:30 1019 30.09 848 25.04 5.3 41.5 88 3.4 38.2
04:35 1019 30.09 848 25.04 5.1 41.1 88 3.2 37.7
04:40 1019 30.09 848 25.04 5 40.9 88 3.1 37.5
04:45 1019 30.09 848 25.04 4.9 40.7 89 3.2 37.8
04:50 1019 30.09 848 25.04 4.8 40.7 89 3.1 37.7
04:55 1019 30.09 848 25.04 4.9 40.9 88 3.2 37.7
05:00 1019 30.09 848 25.04 4.9 40.9 89 3.3 37.9
05:05 1019 30.09 848 25.04 4.8 40.7 89 3.1 37.6
05:10 1019 30.09 848 25.04 4.7 40.5 87 2.8 37.1
05:15 1019 30.09 848 25.04 4.7 40.5 86 2.6 36.7
05:20 1019 30.09 848 25.04 4.8 40.6 86 2.5 36.6
05:25 1019 30.09 848 25.04 4.8 40.7 86 2.7 36.9
05:30 1019 30.09 848 25.04 4.7 40.5 87 2.8 37.1
05:35 1019 30.09 848 25.04 4.8 40.6 87 2.7 36.9
05:40 1019 30.09 848 25.04 4.7 40.5 86 2.6 36.7
05:45 1019 30.09 848 25.04 4.8 40.7 86 2.7 36.9
05:50 1019 30.09 848 25.04 4.9 40.8 85 2.7 36.8
05:55 1019 30.09 848 25.04 4.9 40.9 84 2.5 36.5
06:00 1019 30.09 848 25.04 5 41 83 2.3 36.1
06:05 1019 30.09 848 25.04 5.3 41.5 83 2.7 36.8
06:10 1019 30.09 848 25.04 5.2 41.4 85 3 37.3
06:15 1019 30.09 848 25.04 4.9 40.8 88 3.1 37.5
06:20 1019 30.09 848 25.04 4.7 40.5 89 3.2 37.7
06:25 1019 30.09 848 25.04 4.7 40.5 89 3.1 37.5
06:30 1019 30.09 848 25.04 4.9 40.9 89 3.3 37.9
06:35 1019 30.09 848 25.04 5.2 41.4 86 3.1 37.6
06:40 1019 30.09 848 25.04 5.3 41.5 86 3.1 37.7
06:45 1019 30.09 848 25.04 5.4 41.7 86 3.3 37.9
06:50 1019 30.09 849 25.07 5.4 41.6 85 3 37.5
06:55 1020 30.12 849 25.07 5.3 41.6 88 3.5 38.2
07:00 1020 30.12 849 25.07 5.3 41.6 88 3.6 38.4
07:05 1020 30.12 849 25.07 5.3 41.6 90 3.8 38.8
07:10 1020 30.12 849 25.07 5.3 41.5 89 3.7 38.7
07:15 1020 30.12 849 25.07 5.4 41.6 90 3.8 38.8
07:20 1020 30.12 849 25.07 5.3 41.6 89 3.6 38.5
07:25 1020 30.12 849 25.07 5.2 41.4 87 3.3 37.9
07:30 1020 30.12 849 25.07 5.2 41.3 86 3 37.3
07:35 1020 30.12 849 25.07 5.1 41.2 86 3 37.4
07:40 1020 30.12 849 25.07 5.1 41.2 87 3.1 37.6
07:45 1020 30.12 849 25.07 5.1 41.1 87 3.1 37.7
07:50 1020 30.12 849 25.07 5.1 41.2 85 2.8 37.1
07:55 1020 30.12 850 25.1 5.1 41.1 86 2.9 37.2
08:00 1020 30.12 850 25.1 5 40.9 87 3 37.5
08:05 1020 30.12 850 25.1 4.9 40.8 89 3.3 38
08:10 1021 30.15 850 25.1 5 40.9 89 3.4 38
08:15 1021 30.15 850 25.1 5 41 86 2.9 37.3
08:20 1021 30.15 850 25.1 5.1 41.2 87 3.2 37.7
08:25 1021 30.15 850 25.1 5.1 41.2 87 3.1 37.6
08:30 1021 30.15 850 25.1 4.9 40.8 88 3 37.4
08:35 1021 30.15 850 25.1 4.7 40.4 87 2.7 36.9
08:40 1021 30.15 850 25.1 4.2 39.6 86 2.2 35.9
08:45 1021 30.15 850 25.1 3.8 38.8 89 2.2 35.9
08:50 1021 30.15 850 25.1 3.5 38.2 88 1.7 35.1
08:55 1021 30.15 850 25.1 2.9 37.2 90 1.4 34.5
09:00 1021 30.15 850 25.1 2.6 36.6 91 1.2 34.1
09:05 1021 30.15 850 25.1 2.6 36.7 90 1.2 34.2
09:10 1021 30.15 850 25.1 3 37.3 90 1.5 34.7
09:15 1021 30.15 850 25.1 3.4 38 90 1.8 35.3
09:20 1021 30.15 850 25.1 3.9 39 88 2.2 35.9
09:25 1021 30.15 850 25.1 4.2 39.6 88 2.4 36.3
09:30 1021 30.15 850 25.1 4.7 40.4 86 2.5 36.4
09:35 1021 30.15 851 25.13 5 41 83 2.3 36.2
09:40 1021 30.15 851 25.13 5.2 41.4 81 2.2 36
09:45 1021 30.15 851 25.13 5.6 42.1 81 2.6 36.7
09:50 1021 30.15 851 25.13 5.8 42.5 79 2.6 36.6
09:55 1021 30.15 851 25.13 5.9 42.7 81 2.9 37.2
10:00 1021 30.15 851 25.13 6 42.7 83 3.4 38
10:05 1021 30.15 851 25.13 6.2 43.1 79 2.8 37.1
10:10 1021 30.15 851 25.13 6.5 43.6 78 2.8 37.1
10:15 1021 30.15 851 25.13 6.5 43.6 74 2.3 36.1
10:20 1021 30.15 851 25.13 6.4 43.6 76 2.6 36.6
10:25 1021 30.15 851 25.13 6.3 43.3 74 2 35.7
10:30 1021 30.15 851 25.13 6.1 43.1 73 1.7 35.1
10:35 1021 30.15 851 25.13 6.4 43.5 73 1.9 35.4
10:40 1021 30.15 851 25.13 6.9 44.3 69 1.6 34.9
10:45 1022 30.18 851 25.13 7.4 45.3 72 2.6 36.8
10:50 1022 30.18 851 25.13 7.5 45.6 72 2.8 37.1
10:55 1022 30.18 851 25.13 7.7 45.9 68 2.2 35.9
11:00 1021 30.15 851 25.13 8 46.3 69 2.6 36.8
11:05 1022 30.18 851 25.13 8.1 46.5 67 2.4 36.3
11:10 1021 30.15 851 25.13 8.2 46.8 68 2.7 36.9
11:15 1021 30.15 851 25.13 8.5 47.4 60 1.3 34.3
11:20 1021 30.15 851 25.13 9.1 48.4 61 2.1 35.7
11:25 1022 30.18 851 25.13 9.4 48.9 57 1.2 34.2
11:30 1022 30.18 851 25.13 9.9 49.8 56 1.4 34.6
11:35 1022 30.18 851 25.13 10 50.1 57 1.9 35.5
11:40 1022 30.18 851 25.13 10.8 51.5 48 0.3 32.6
11:45 1022 30.18 851 25.13 11.4 52.6 51 1.8 35.3
11:50 1022 30.18 851 25.13 10.6 51.1 50 0.8 33.4
11:55 1022 30.18 851 25.13 10.8 51.5 51 1.1 34
12:00 1022 30.18 851 25.13 11 51.8 51 1.4 34.6
12:05 1022 30.18 851 25.13 11.3 52.4 48 0.9 33.5
12:10 1022 30.18 851 25.13 11.5 52.6 49 1.1 34
12:15 1021 30.15 851 25.13 11.9 53.4 49 1.6 34.8
12:20 1022 30.18 851 25.13 11.8 53.3 48 1.3 34.3
12:25 1022 30.18 851 25.13 12.2 54 47 1.2 34.2
12:30 1022 30.18 851 25.13 12.1 53.8 49 1.8 35.2
12:35 1022 30.18 851 25.13 12 53.5 50 1.8 35.2
12:40 1022 30.18 851 25.13 12 53.5 50 1.8 35.2
12:45 1022 30.18 851 25.13 12.4 54.3 45 1 33.8
12:50 1022 30.18 851 25.13 12.3 54.1 43 0.2 32.4
12:55 1022 30.18 851 25.13 11.7 53.1 47 0.7 33.3
13:00 1022 30.18 851 25.13 12.1 53.8 47 1.3 34.4
13:05 1022 30.18 851 25.13 11.6 52.8 50 1.6 34.9
13:10 1022 30.18 851 25.13 12.2 54 43 0.2 32.4
13:15 1022 30.18 851 25.13 12.9 55.1 44 0.8 33.5
13:20 1021 30.15 851 25.13 12.9 55.2 41 0.2 32.3
13:25 1022 30.18 851 25.13 12.5 54.5 44 0.7 33.2
13:30 1021 30.15 851 25.13 12.6 54.7 46 1.3 34.4
13:35 1021 30.15 851 25.13 12.6 54.8 43 0.3 32.6
13:40 1021 30.15 851 25.13 13.2 55.7 42 0.5 33
13:45 1021 30.15 851 25.13 13.5 56.4 42 1 33.7
13:50 1021 30.15 851 25.13 13.5 56.3 42 0.9 33.7
13:55 1021 30.15 851 25.13 13.9 56.9 40 0.4 32.8
14:00 1021 30.15 851 25.13 14.2 57.5 37 -0.3 31.5
14:05 1022 30.18 851 25.13 13.7 56.6 39 -0 32
14:10 1022 30.18 851 25.13 12.9 55.2 41 0.1 32.2
14:15 1022 30.18 851 25.13 12.7 54.8 46 1.2 34.2
14:20 1022 30.18 851 25.13 11.7 53.1 47 0.8 33.4
14:25 1022 30.18 851 25.13 12.2 53.9 45 0.8 33.4
14:30 1022 30.18 851 25.13 13.1 55.5 44 1.1 34
14:35 1022 30.18 851 25.13 13.3 56 43 1.2 34.2
14:40 1021 30.15 851 25.13 13.5 56.3 43 1.4 34.5
14:45 1021 30.15 851 25.13 13.5 56.3 43 1.3 34.4
14:50 1021 30.15 851 25.13 13.7 56.6 42 1 33.8
14:55 1021 30.15 851 25.13 13.7 56.7 41 0.9 33.6
15:00 1021 30.15 851 25.13 14.5 58 39 0.9 33.6
15:05 1021 30.15 851 25.13 15.3 59.5 39 1.5 34.7
15:10 1021 30.15 850 25.1 15.4 59.7 39 1.7 35
15:15 1021 30.15 850 25.1 15.7 60.2 38 1.6 34.9
15:20 1021 30.15 850 25.1 16 60.8 38 1.6 34.9
15:25 1021 30.15 850 25.1 15.6 60 34 -0 31.9
15:30 1021 30.15 850 25.1 15.3 59.5 32 -1.1 30
15:35 1021 30.15 850 25.1 14.9 58.8 35 -0.3 31.4
15:40 1021 30.15 850 25.1 15.2 59.4 34 -0.3 31.5
15:45 1021 30.15 850 25.1 15.8 60.4 33 -0.2 31.7
15:50 1021 30.15 850 25.1 15.1 59.3 35 0.1 32.1
15:55 1021 30.15 850 25.1 14.5 58.1 34 -0.9 30.3
16:00 1021 30.15 850 25.1 14.4 57.8 35 -0.7 30.7
16:05 1021 30.15 850 25.1 15.3 59.6 34 -0.5 31.1
16:10 1021 30.15 850 25.1 15.7 60.2 32 -1.1 30.1
16:15 1021 30.15 850 25.1 15.9 60.6 31 -1 30.3
16:20 1021 30.15 850 25.1 15.6 60 32 -0.9 30.3
16:25 1021 30.15 850 25.1 15.6 60 33 -0.6 30.9
16:30 1021 30.15 850 25.1 14.9 58.8 34 -0.6 30.9
16:35 1021 30.15 850 25.1 14.6 58.3 34 -0.8 30.5
16:40 1021 30.15 850 25.1 14.4 57.9 35 -0.6 30.9
16:45 1021 30.15 850 25.1 14.5 58.2 33 -1.3 29.6
16:50 1021 30.15 850 25.1 15.1 59.2 34 -0.4 31.3
16:55 1020 30.12 850 25.1 15.2 59.4 35 -0.2 31.6
17:00 1020 30.12 850 25.1 15.2 59.3 33 -0.7 30.7
17:05 1020 30.12 850 25.1 15.1 59.1 33 -1.2 29.9
17:10 1020 30.12 850 25.1 15.4 59.7 32 -1.3 29.6
17:15 1020 30.12 850 25.1 15.6 60.2 31 -1.4 29.5
17:20 1020 30.12 850 25.1 15.6 60.1 32 -1 30.2
17:25 1020 30.12 850 25.1 15.6 60.2 32 -1 30.2
17:30 1020 30.12 850 25.1 15.5 59.9 32 -1.1 30.1
17:35 1020 30.12 850 25.1 15.8 60.4 30 -1.8 28.8
17:40 1020 30.12 850 25.1 15.8 60.4 31 -1.2 29.8
17:45 1020 30.12 850 25.1 15.6 60.2 30 -1.6 29.2
17:50 1020 30.12 850 25.1 15.5 59.9 31 -1.6 29.2
17:55 1020 30.12 850 25.1 15.5 60 30 -1.8 28.7
18:00 1020 30.12 850 25.1 15.5 59.8 30 -1.9 28.6
18:05 1020 30.12 850 25.1 15.4 59.7 30 -2 28.4
18:10 1020 30.12 850 25.1 15.5 59.9 29 -2.5 27.5
18:15 1020 30.12 850 25.1 15.6 60 28 -2.6 27.3
18:20 1020 30.12 850 25.1 15.5 59.9 29 -2.2 28.1
18:25 1020 30.12 850 25.1 15.5 59.9 31 -1.5 29.2
18:30 1020 30.12 850 25.1 15.3 59.5 32 -1.2 29.9
18:35 1020 30.12 850 25.1 14.8 58.6 33 -1.4 29.4
18:40 1020 30.12 850 25.1 14.3 57.8 35 -0.8 30.6
18:45 1020 30.12 850 25.1 14.2 57.6 34 -1.2 29.9
18:50 1020 30.12 850 25.1 14.1 57.3 34 -1.4 29.4
18:55 1020 30.12 850 25.1 14 57.1 35 -1.3 29.7
19:00 1020 30.12 850 25.1 13.9 57 33 -1.9 28.5
19:05 1020 30.12 850 25.1 13.7 56.6 36 -1.2 29.9
19:10 1020 30.12 850 25.1 13.4 56.1 37 -1.1 30.1
19:15 1020 30.12 850 25.1 13.4 56 37 -1.1 30
19:20 1020 30.12 850 25.1 13.3 55.9 36 -1.3 29.6
19:25 1020 30.12 850 25.1 13.1 55.6 38 -1 30.3
19:30 1021 30.15 850 25.1 13 55.3 39 -0.5 31.1
19:35 1021 30.15 850 25.1 12.7 54.9 39 -0.6 30.9
19:40 1021 30.15 850 25.1 12.5 54.6 40 -0.7 30.7
19:45 1021 30.15 850 25.1 12.4 54.3 39 -1 30.2
19:50 1021 30.15 850 25.1 12.2 53.9 40 -0.8 30.5
19:55 1021 30.15 850 25.1 11.9 53.5 42 -0.7 30.8
20:00 1021 30.15 850 25.1 11.8 53.2 42 -0.8 30.5
20:05 1021 30.15 850 25.1 11.6 52.9 42 -0.8 30.5
20:10 1021 30.15 850 25.1 11.5 52.7 42 -0.9 30.3
20:15 1021 30.15 850 25.1 11.4 52.5 42 -1 30.2
20:20 1021 30.15 850 25.1 11.3 52.4 42 -1.1 30
20:25 1021 30.15 850 25.1 11.2 52.1 43 -0.9 30.4
20:30 1021 30.15 850 25.1 11 51.8 43 -1 30.3
20:35 1021 30.15 850 25.1 10.9 51.6 44 -0.8 30.6
20:40 1021 30.15 850 25.1 10.7 51.3 46 -0.5 31.2
20:45 1021 30.15 850 25.1 10.3 50.5 50 0.5 32.9
20:50 1021 30.15 850 25.1 9.5 49.1 55 0.8 33.5
20:55 1021 30.15 850 25.1 9.1 48.3 54 0.2 32.4
21:00 1021 30.15 851 25.13 9.2 48.5 52 -0 32
21:05 1021 30.15 851 25.13 9.3 48.7 52 -0.1 31.8
21:10 1021 30.15 851 25.13 9.4 48.9 50 -0.4 31.4
21:15 1021 30.15 851 25.13 9.7 49.4 50 -0.3 31.4
21:20 1021 30.15 851 25.13 9.7 49.5 50 -0.1 31.7
21:25 1021 30.15 851 25.13 9.8 49.6 50 -0 32
21:30 1021 30.15 851 25.13 9.8 49.6 51 0.1 32.1
21:35 1022 30.18 851 25.13 9.8 49.7 49 -0.4 31.3
21:40 1022 30.18 851 25.13 9.6 49.2 53 0.4 32.8
21:45 1022 30.18 851 25.13 9.1 48.4 55 0.6 33
21:50 1022 30.18 851 25.13 8.8 47.8 55 0.4 32.7
21:55 1022 30.18 851 25.13 8.6 47.5 56 0.3 32.6
22:00 1022 30.18 851 25.13 8.5 47.3 58 0.7 33.3
22:05 1022 30.18 851 25.13 8.4 47.1 57 0.5 32.9
22:10 1022 30.18 851 25.13 8.5 47.2 58 0.7 33.3
22:15 1022 30.18 851 25.13 8.3 46.9 59 0.8 33.4
22:20 1022 30.18 851 25.13 8.2 46.7 60 0.9 33.6
22:25 1022 30.18 851 25.13 8 46.4 59 0.4 32.8
22:30 1022 30.18 851 25.13 8.2 46.7 57 0.2 32.3
22:35 1022 30.18 851 25.13 8.5 47.2 55 0 32
22:40 1022 30.18 851 25.13 8.7 47.7 55 0.3 32.6
22:45 1022 30.18 851 25.13 8.6 47.5 56 0.4 32.6
22:50 1022 30.18 851 25.13 8.4 47 56 0.2 32.4
22:55 1022 30.18 851 25.13 8.2 46.8 57 0.3 32.5
23:00 1022 30.18 851 25.13 8.1 46.6 57 0.1 32.2
23:05 1022 30.18 851 25.13 8.3 46.9 55 -0.1 31.8
23:10 1022 30.18 851 25.13 8.4 47 56 0 32
23:15 1022 30.18 851 25.13 8.3 46.9 56 0 32.1
23:20 1022 30.18 851 25.13 8.2 46.8 55 -0.2 31.7
23:25 1022 30.18 851 25.13 8.3 46.9 55 -0.2 31.6
23:30 1022 30.18 851 25.13 8.3 46.9 55 -0.1 31.8
23:35 1022 30.18 851 25.13 8.1 46.6 57 0.2 32.4
23:40 1022 30.18 851 25.13 8 46.3 57 -0.1 31.9
23:45 1022 30.18 851 25.13 8 46.3 58 0.3 32.6
23:50 1022 30.18 851 25.13 7.7 45.9 61 0.7 33.3
23:55 1022 30.18 851 25.13 7.4 45.4 63 0.9 33.6
24:00 1022 30.18 851 25.13 7 44.7 65 0.9 33.6